Time;durP1;ratioP1;P1;durP2;ratioP2;P2;SDS_P1;SDS_P2;PMS_P1;PMS_P2;Temp;Humidity;BMP_temperature;BMP_pressure;BME280_temperature;BME280_humidity;BME280_pressure;Samples;Min_cycle;Max_cycle;Signal;HPM_P1;HPM_P2
2022/03/24 00:00:20;;;;;;;1.97;1.87;;;7.60;99.90;;;;;;4995382;28;20208;-67
2022/03/24 00:02:47;;;;;;;1.88;1.77;;;7.60;99.90;;;;;;4998318;28;20296;-68
2022/03/24 00:05:14;;;;;;;1.98;1.88;;;7.60;99.90;;;;;;4990824;28;20233;-66
2022/03/24 00:07:41;;;;;;;1.65;1.60;;;7.60;99.90;;;;;;4990918;28;20242;-67
2022/03/24 00:10:09;;;;;;;1.70;1.60;;;7.60;99.90;;;;;;4991743;28;20225;-65
2022/03/24 00:12:36;;;;;;;2.15;2.05;;;7.60;99.90;;;;;;4991358;28;20205;-65
2022/03/24 00:15:06;;;;;;;2.08;1.98;;;7.60;99.90;;;;;;4991682;28;20230;-67
2022/03/24 00:17:33;;;;;;;2.00;1.90;;;7.60;99.90;;;;;;4992468;28;20225;-65
2022/03/24 00:20:01;;;;;;;1.95;1.85;;;7.60;99.90;;;;;;4991539;28;20714;-67
2022/03/24 00:22:28;;;;;;;1.73;1.63;;;7.50;99.90;;;;;;4993896;28;20210;-65
2022/03/24 00:24:55;;;;;;;1.90;1.80;;;7.50;99.90;;;;;;4993642;28;20591;-65
2022/03/24 00:27:22;;;;;;;1.80;1.70;;;7.40;99.90;;;;;;4995575;28;20839;-67
2022/03/24 00:29:49;;;;;;;1.80;1.70;;;7.40;99.90;;;;;;4995461;28;20240;-66
2022/03/24 00:32:17;;;;;;;1.80;1.70;;;7.40;99.90;;;;;;4994850;28;20229;-66
2022/03/24 00:34:45;;;;;;;1.73;1.63;;;7.30;99.90;;;;;;4994434;28;20228;-66
2022/03/24 00:37:12;;;;;;;1.80;1.70;;;7.30;99.90;;;;;;4995572;28;20206;-66
2022/03/24 00:39:40;;;;;;;1.80;1.70;;;7.30;99.90;;;;;;4995409;28;20319;-66
2022/03/24 00:42:11;;;;;;;1.63;1.53;;;7.30;99.90;;;;;;4995059;28;20244;-67
2022/03/24 00:44:40;;;;;;;2.03;1.83;;;7.20;99.90;;;;;;4994742;28;20191;-67
2022/03/24 00:47:07;;;;;;;1.75;1.65;;;7.20;99.90;;;;;;4995517;28;20210;-67
2022/03/24 00:49:35;;;;;;;2.00;1.90;;;7.10;99.90;;;;;;4996083;28;20285;-66
2022/03/24 00:52:03;;;;;;;1.70;1.60;;;7.10;99.90;;;;;;4998125;28;20618;-65
2022/03/24 00:54:30;;;;;;;1.70;1.60;;;7.10;99.90;;;;;;4996394;28;20212;-64
2022/03/24 00:56:57;;;;;;;1.80;1.70;;;7.00;99.90;;;;;;5001497;28;20330;-67
2022/03/24 00:59:24;;;;;;;1.80;1.70;;;7.00;99.90;;;;;;4991981;28;20214;-65
2022/03/24 01:01:53;;;;;;;2.00;1.90;;;7.00;99.90;;;;;;4994592;28;20202;-66
2022/03/24 01:04:20;;;;;;;1.80;1.70;;;7.00;99.90;;;;;;4994525;28;20541;-66
2022/03/24 01:06:49;;;;;;;1.60;1.60;;;7.10;99.90;;;;;;4999297;22;20956;-63
2022/03/24 01:09:15;;;;;;;1.40;1.40;;;6.90;99.90;;;;;;4987347;28;20270;-64
2022/03/24 01:11:42;;;;;;;1.90;1.80;;;6.80;99.90;;;;;;4975252;28;20313;-61
2022/03/24 01:14:09;;;;;;;1.80;1.70;;;6.90;99.90;;;;;;4977585;28;20235;-62
2022/03/24 01:16:36;;;;;;;1.70;1.60;;;6.80;99.90;;;;;;4979185;28;20254;-62
2022/03/24 01:19:04;;;;;;;1.80;1.70;;;6.80;99.90;;;;;;4977818;28;20285;-62
2022/03/24 01:21:31;;;;;;;2.00;1.90;;;6.70;99.90;;;;;;4977889;28;20238;-63
2022/03/24 01:24:01;;;;;;;1.93;1.83;;;6.70;99.90;;;;;;4976867;28;20294;-63
2022/03/24 01:26:28;;;;;;;1.80;1.70;;;6.70;99.90;;;;;;4977617;28;20276;-62
2022/03/24 01:28:56;;;;;;;1.77;1.67;;;6.70;99.90;;;;;;4975824;28;20227;-62
2022/03/24 01:31:24;;;;;;;1.80;1.70;;;6.70;99.90;;;;;;4975060;28;20241;-62
2022/03/24 01:33:50;;;;;;;1.90;1.80;;;6.70;99.90;;;;;;4973790;28;20214;-62
2022/03/24 01:36:18;;;;;;;2.43;1.63;;;6.70;99.90;;;;;;4974444;28;20305;-62
2022/03/24 01:38:45;;;;;;;1.70;1.60;;;6.70;99.90;;;;;;4974838;28;20696;-63
2022/03/24 01:41:14;;;;;;;1.95;1.85;;;6.70;99.90;;;;;;4974839;28;20214;-62
2022/03/24 01:43:42;;;;;;;1.60;1.55;;;6.70;99.90;;;;;;4973655;28;20293;-63
2022/03/24 01:46:09;;;;;;;2.00;1.90;;;6.70;99.90;;;;;;4974296;28;20237;-62
2022/03/24 01:48:36;;;;;;;1.80;1.70;;;6.70;99.90;;;;;;4974612;28;20214;-64
2022/03/24 01:51:03;;;;;;;1.70;1.60;;;6.70;99.90;;;;;;4974736;28;20258;-62
2022/03/24 01:53:30;;;;;;;1.65;1.55;;;6.70;99.90;;;;;;4974545;28;20211;-62
2022/03/24 01:55:58;;;;;;;1.90;1.80;;;6.60;99.90;;;;;;4974616;28;20249;-64
2022/03/24 01:58:27;;;;;;;1.80;1.70;;;6.60;99.90;;;;;;4975006;28;20250;-63
2022/03/24 02:01:01;;;;;;;1.70;1.60;;;6.60;99.90;;;;;;4974523;28;20238;-64
2022/03/24 02:03:28;;;;;;;2.60;1.87;;;6.50;99.90;;;;;;4974754;28;20277;-62
2022/03/24 02:05:55;;;;;;;1.70;1.60;;;6.50;99.90;;;;;;4974716;28;20329;-61
2022/03/24 02:08:22;;;;;;;1.57;1.57;;;6.40;99.90;;;;;;4974277;28;20560;-62
2022/03/24 02:10:48;;;;;;;1.75;1.65;;;6.40;99.90;;;;;;4974794;28;20320;-63
2022/03/24 02:13:15;;;;;;;1.88;1.77;;;6.30;99.90;;;;;;4973425;28;20407;-62
2022/03/24 02:15:44;;;;;;;1.90;1.80;;;6.30;99.90;;;;;;4973541;28;20309;-63
2022/03/24 02:18:13;;;;;;;1.70;1.60;;;6.30;99.90;;;;;;4974495;28;20404;-62
2022/03/24 02:20:41;;;;;;;1.70;1.60;;;6.30;99.90;;;;;;4976184;28;20306;-63
2022/03/24 02:23:09;;;;;;;1.70;1.60;;;6.30;99.90;;;;;;4978009;28;20207;-61
2022/03/24 02:25:38;;;;;;;1.80;1.70;;;6.30;99.90;;;;;;4974039;28;20269;-62
2022/03/24 02:28:05;;;;;;;1.80;1.70;;;6.20;99.90;;;;;;4982344;28;20210;-64
2022/03/24 02:30:32;;;;;;;2.53;1.90;;;6.20;99.90;;;;;;4993711;28;20309;-62
2022/03/24 02:32:59;;;;;;;1.60;1.60;;;6.20;99.90;;;;;;4993529;28;20312;-63
2022/03/24 02:35:26;;;;;;;1.90;1.73;;;6.10;99.90;;;;;;4992730;28;20258;-62
2022/03/24 02:37:53;;;;;;;1.75;1.65;;;6.10;99.90;;;;;;4986265;28;20246;-62
2022/03/24 02:40:21;;;;;;;1.80;1.70;;;6.20;99.90;;;;;;4973535;28;20764;-65
2022/03/24 02:42:48;;;;;;;1.42;1.42;;;6.20;99.90;;;;;;4973781;28;20194;-63
2022/03/24 02:45:16;;;;;;;1.80;1.70;;;6.20;99.90;;;;;;4974862;28;20234;-62
2022/03/24 02:47:44;;;;;;;1.83;1.73;;;6.20;99.90;;;;;;4976491;28;20301;-63
2022/03/24 02:50:11;;;;;;;1.60;1.50;;;6.20;99.90;;;;;;4978069;28;20214;-63
2022/03/24 02:52:38;;;;;;;1.90;1.80;;;6.20;99.90;;;;;;4975599;28;20599;-64
2022/03/24 02:55:07;;;;;;;1.70;1.60;;;6.10;99.90;;;;;;4974391;28;20216;-65
2022/03/24 02:57:36;;;;;;;1.90;1.80;;;6.00;99.90;;;;;;4974175;28;20207;-64
2022/03/24 03:00:05;;;;;;;1.70;1.60;;;5.90;99.90;;;;;;4980213;28;20238;-63
2022/03/24 03:02:32;;;;;;;1.92;1.83;;;5.90;99.90;;;;;;4983818;28;20576;-62
2022/03/24 03:04:58;;;;;;;1.73;1.70;;;5.80;99.90;;;;;;4984868;28;20207;-63
2022/03/24 03:07:28;;;;;;;1.83;1.73;;;5.80;99.90;;;;;;4980445;28;20298;-63
2022/03/24 03:09:55;;;;;;;1.52;1.52;;;5.80;99.90;;;;;;4976364;28;20245;-63
2022/03/24 03:12:22;;;;;;;1.70;1.60;;;5.80;99.90;;;;;;4976338;28;20266;-61
2022/03/24 03:14:50;;;;;;;1.95;1.85;;;5.80;99.90;;;;;;4972032;28;20206;-62
2022/03/24 03:17:17;;;;;;;1.85;1.75;;;5.80;99.90;;;;;;4973255;28;20207;-62
2022/03/24 03:19:46;;;;;;;1.90;1.80;;;5.80;99.90;;;;;;4973117;28;20209;-62
2022/03/24 03:22:14;;;;;;;1.80;1.70;;;5.90;99.90;;;;;;4973008;28;20199;-64
2022/03/24 03:24:41;;;;;;;1.90;1.80;;;5.80;99.90;;;;;;4970873;28;20203;-63
2022/03/24 03:27:08;;;;;;;1.80;1.70;;;5.70;99.90;;;;;;4972396;28;20321;-62
2022/03/24 03:29:35;;;;;;;1.90;1.80;;;5.70;99.90;;;;;;4972631;28;20218;-62
2022/03/24 03:32:05;;;;;;;1.88;1.77;;;5.60;99.90;;;;;;4971510;28;20236;-63
2022/03/24 03:34:32;;;;;;;2.05;1.95;;;5.60;99.90;;;;;;4971673;28;20218;-63
2022/03/24 03:37:00;;;;;;;1.80;1.70;;;5.60;99.90;;;;;;4972605;28;20249;-64
2022/03/24 03:39:28;;;;;;;2.00;1.90;;;5.50;99.90;;;;;;4971936;28;20538;-62
2022/03/24 03:41:55;;;;;;;1.80;1.70;;;5.50;99.90;;;;;;4972430;28;20670;-64
2022/03/24 03:44:23;;;;;;;2.17;2.07;;;5.50;99.90;;;;;;4970905;28;20211;-63
2022/03/24 03:46:51;;;;;;;1.98;1.88;;;5.50;99.90;;;;;;4972231;28;20600;-64
2022/03/24 03:49:20;;;;;;;1.75;1.65;;;5.50;99.90;;;;;;4973025;28;20211;-63
2022/03/24 03:51:47;;;;;;;1.73;1.65;;;5.50;99.90;;;;;;4973200;28;20261;-63
2022/03/24 03:54:15;;;;;;;1.93;1.83;;;5.40;99.90;;;;;;4972034;28;20669;-64
2022/03/24 03:56:42;;;;;;;2.00;1.90;;;5.40;99.90;;;;;;4980723;28;20242;-63
2022/03/24 03:59:09;;;;;;;1.95;1.85;;;5.40;99.90;;;;;;4980562;28;20298;-63
2022/03/24 04:01:36;;;;;;;1.90;1.80;;;5.40;99.90;;;;;;4979076;28;20207;-64
2022/03/24 04:04:05;;;;;;;2.00;1.90;;;5.60;99.90;;;;;;4978332;28;20207;-63
2022/03/24 04:06:34;;;;;;;1.90;1.80;;;5.50;99.90;;;;;;4973423;28;20779;-61
2022/03/24 04:09:01;;;;;;;2.20;2.10;;;5.50;99.90;;;;;;4972137;28;20210;-62
2022/03/24 04:11:28;;;;;;;2.00;1.90;;;5.50;99.90;;;;;;4973600;28;20317;-63
2022/03/24 04:13:56;;;;;;;2.05;1.95;;;5.50;99.90;;;;;;4971836;28;20210;-62
2022/03/24 04:16:23;;;;;;;2.00;1.90;;;5.50;99.90;;;;;;4972367;28;20302;-62
2022/03/24 04:18:51;;;;;;;2.00;1.90;;;5.60;99.90;;;;;;4972876;28;20234;-61
2022/03/24 04:21:19;;;;;;;2.03;1.92;;;5.50;99.90;;;;;;4973550;28;20207;-63
2022/03/24 04:23:49;;;;;;;2.00;1.90;;;5.50;99.90;;;;;;4972220;28;20202;-63
2022/03/24 04:26:16;;;;;;;1.80;1.70;;;5.60;99.90;;;;;;4972048;28;20572;-63
2022/03/24 04:28:44;;;;;;;2.00;1.90;;;5.60;99.90;;;;;;4976282;28;20207;-62
2022/03/24 04:31:11;;;;;;;2.00;1.90;;;5.70;99.90;;;;;;4984274;28;20203;-63
2022/03/24 04:33:38;;;;;;;1.90;1.80;;;5.60;99.90;;;;;;4983984;28;20238;-62
2022/03/24 04:36:08;;;;;;;1.90;1.80;;;5.70;99.90;;;;;;5001907;28;20226;-65
2022/03/24 04:38:35;;;;;;;1.80;1.70;;;5.70;99.90;;;;;;4983065;28;20207;-63
2022/03/24 04:41:04;;;;;;;1.70;1.60;;;5.70;99.90;;;;;;4981076;28;20560;-63
2022/03/24 04:43:31;;;;;;;2.00;1.90;;;5.70;99.90;;;;;;4975482;28;20226;-62
2022/03/24 04:45:58;;;;;;;1.80;1.70;;;5.80;99.90;;;;;;4973329;28;20317;-65
2022/03/24 04:48:25;;;;;;;2.00;1.90;;;5.80;99.90;;;;;;4973706;28;20300;-64
2022/03/24 04:50:52;;;;;;;1.80;1.70;;;5.80;99.90;;;;;;4972879;28;20293;-65
2022/03/24 04:53:19;;;;;;;1.90;1.80;;;5.80;99.90;;;;;;4971786;28;20629;-62
2022/03/24 04:55:47;;;;;;;1.80;1.70;;;5.90;99.90;;;;;;4971998;28;20720;-63
2022/03/24 04:58:15;;;;;;;1.52;1.52;;;5.90;99.90;;;;;;4973018;28;20298;-64
2022/03/24 05:00:43;;;;;;;2.00;1.90;;;5.80;99.90;;;;;;4972483;28;20241;-63
2022/03/24 05:03:10;;;;;;;1.90;1.80;;;5.90;99.90;;;;;;4971901;28;20214;-63
2022/03/24 05:06:24;;;;;;;1.90;1.80;;;5.80;99.90;;;;;;4972410;28;20266;-63
2022/03/24 05:08:51;;;;;;;1.97;1.87;;;5.80;99.90;;;;;;4970147;28;20205;-64
2022/03/24 05:14:42;;;;;;;2.03;1.93;;;5.70;99.90;;;;;;4971538;28;20193;-65
2022/03/24 05:17:09;;;;;;;2.13;2.03;;;5.80;99.90;;;;;;4975689;28;20321;-64
2022/03/24 05:19:36;;;;;;;2.20;2.10;;;5.80;99.90;;;;;;4975979;28;20315;-65
2022/03/24 05:22:03;;;;;;;2.10;1.92;;;5.70;99.90;;;;;;4975655;28;20290;-65
2022/03/24 05:24:30;;;;;;;2.00;1.90;;;5.70;99.90;;;;;;4971841;28;20213;-64
2022/03/24 05:26:57;;;;;;;1.90;1.80;;;5.70;99.90;;;;;;4975645;28;20224;-64
2022/03/24 05:29:24;;;;;;;2.23;2.13;;;5.60;99.90;;;;;;4978340;28;20204;-63
2022/03/24 05:31:52;;;;;;;1.90;1.80;;;5.60;99.90;;;;;;4977891;28;20227;-62
2022/03/24 05:34:19;;;;;;;2.10;2.00;;;5.70;99.90;;;;;;4972641;28;20209;-63
2022/03/24 05:36:46;;;;;;;1.80;1.70;;;5.70;99.90;;;;;;4975088;28;20223;-62
2022/03/24 05:39:13;;;;;;;2.03;1.92;;;5.70;99.90;;;;;;4974745;28;20261;-66
2022/03/24 05:41:41;;;;;;;2.00;1.90;;;5.70;99.90;;;;;;4977074;28;20234;-64
2022/03/24 05:44:08;;;;;;;1.80;1.70;;;5.90;99.90;;;;;;4974944;28;20206;-64
2022/03/24 05:46:36;;;;;;;1.90;1.80;;;5.80;99.90;;;;;;4972205;28;20317;-64
2022/03/24 05:49:06;;;;;;;1.65;1.55;;;5.90;99.90;;;;;;4972089;28;20298;-63
2022/03/24 05:51:34;;;;;;;1.87;1.77;;;5.90;99.90;;;;;;4982209;28;20199;-64
2022/03/24 05:54:01;;;;;;;2.00;1.90;;;5.90;99.90;;;;;;4989824;28;20820;-64
2022/03/24 05:56:29;;;;;;;1.88;1.77;;;5.90;99.90;;;;;;4989209;28;20594;-64
2022/03/24 05:58:56;;;;;;;2.20;2.10;;;5.90;99.90;;;;;;4987440;28;20713;-66
2022/03/24 06:01:24;;;;;;;2.00;1.90;;;5.80;99.90;;;;;;4987019;28;20202;-65
2022/03/24 06:03:52;;;;;;;2.10;2.00;;;5.70;99.90;;;;;;4988792;28;20211;-66
2022/03/24 06:06:22;;;;;;;2.20;2.00;;;5.60;99.90;;;;;;4977659;28;20234;-65
2022/03/24 06:08:52;;;;;;;2.10;2.00;;;5.60;99.90;;;;;;4988540;28;20255;-63
2022/03/24 06:11:20;;;;;;;2.10;2.00;;;5.60;99.90;;;;;;4980354;28;20221;-65
2022/03/24 06:13:47;;;;;;;2.45;2.30;;;5.60;99.90;;;;;;4988536;28;20222;-63
2022/03/24 06:16:14;;;;;;;2.10;2.00;;;5.60;99.90;;;;;;4992100;28;20317;-64
2022/03/24 06:18:42;;;;;;;1.97;1.87;;;5.60;99.90;;;;;;4986980;28;20296;-65
2022/03/24 06:21:10;;;;;;;1.90;1.80;;;5.60;99.90;;;;;;4986532;28;20293;-64
2022/03/24 06:23:38;;;;;;;4.00;1.90;;;5.70;99.90;;;;;;4984887;28;20209;-63
2022/03/24 06:26:05;;;;;;;2.07;1.97;;;5.70;99.90;;;;;;4981668;28;20253;-64
2022/03/24 06:28:32;;;;;;;2.20;2.10;;;5.80;99.90;;;;;;4980183;28;20206;-64
2022/03/24 06:31:00;;;;;;;2.50;2.30;;;5.80;99.90;;;;;;4986410;28;20296;-63
2022/03/24 06:33:27;;;;;;;2.10;2.00;;;5.80;99.90;;;;;;4978459;28;20222;-65
2022/03/24 06:35:54;;;;;;;2.05;1.80;;;5.80;99.90;;;;;;4977724;28;20254;-64
2022/03/24 06:38:21;;;;;;;2.38;2.05;;;5.90;99.90;;;;;;4977886;28;20655;-64
2022/03/24 06:40:50;;;;;;;2.42;2.25;;;6.00;99.90;;;;;;4978414;28;20282;-63
2022/03/24 06:43:18;;;;;;;2.30;2.10;;;6.10;99.90;;;;;;4981122;28;20294;-64
2022/03/24 06:45:44;;;;;;;2.35;2.20;;;6.20;99.90;;;;;;4977051;28;20218;-64
2022/03/24 06:48:12;;;;;;;2.60;2.40;;;6.30;99.90;;;;;;4983691;28;20242;-64
2022/03/24 06:50:40;;;;;;;2.47;2.27;;;6.40;99.90;;;;;;4980082;28;20209;-63
2022/03/24 06:53:08;;;;;;;6.53;3.20;;;6.40;99.90;;;;;;4976649;28;20227;-63
2022/03/24 06:55:35;;;;;;;2.30;2.10;;;6.50;99.90;;;;;;4972156;28;20231;-64
2022/03/24 06:58:03;;;;;;;2.30;2.10;;;6.60;99.90;;;;;;4974056;28;20298;-62
2022/03/24 07:00:31;;;;;;;2.00;1.90;;;6.70;99.90;;;;;;4982303;28;20282;-64
2022/03/24 07:02:58;;;;;;;2.10;2.00;;;6.80;99.90;;;;;;4973383;28;20234;-64
2022/03/24 07:05:25;;;;;;;2.22;2.08;;;6.90;99.90;;;;;;4972800;28;20796;-64
2022/03/24 07:07:52;;;;;;;1.98;1.88;;;7.00;99.90;;;;;;4973782;28;20303;-64
2022/03/24 07:10:20;;;;;;;2.07;1.97;;;7.10;99.90;;;;;;4974356;28;20385;-63
2022/03/24 07:12:48;;;;;;;2.00;1.90;;;7.30;99.90;;;;;;4999238;23;20229;-66
2022/03/24 07:15:16;;;;;;;1.70;1.70;;;7.30;99.90;;;;;;5004405;28;20271;-65
2022/03/24 07:17:43;;;;;;;2.20;2.10;;;7.40;99.90;;;;;;4999906;28;20202;-67
2022/03/24 07:20:11;;;;;;;2.03;1.90;;;7.60;99.90;;;;;;4999079;28;20297;-67
2022/03/24 07:22:39;;;;;;;2.25;2.15;;;7.70;99.90;;;;;;5010653;28;20268;-67
2022/03/24 07:25:08;;;;;;;1.90;1.80;;;7.80;99.90;;;;;;5009363;28;20202;-69
2022/03/24 07:27:35;;;;;;;1.80;1.70;;;8.00;99.90;;;;;;5002760;28;20212;-64
2022/03/24 07:30:03;;;;;;;1.90;1.80;;;8.10;99.90;;;;;;5009164;28;20202;-66
2022/03/24 07:32:32;;;;;;;1.85;1.75;;;8.20;99.90;;;;;;4998640;28;20655;-68
2022/03/24 07:35:00;;;;;;;1.90;1.80;;;8.40;99.90;;;;;;5002687;28;20205;-65
2022/03/24 07:37:28;;;;;;;2.20;2.10;;;8.60;99.90;;;;;;5002232;28;20264;-66
2022/03/24 07:39:55;;;;;;;2.10;2.00;;;8.70;99.90;;;;;;5005383;28;20237;-66
2022/03/24 07:42:22;;;;;;;2.05;1.90;;;8.80;99.90;;;;;;5019754;28;20377;-66
2022/03/24 07:44:49;;;;;;;1.80;1.70;;;9.00;99.90;;;;;;5021971;28;20320;-67
2022/03/24 07:47:16;;;;;;;1.80;1.70;;;9.20;99.90;;;;;;5013739;28;20209;-67
2022/03/24 07:49:46;;;;;;;1.87;1.77;;;9.30;99.90;;;;;;5013237;28;20240;-67
2022/03/24 07:52:15;;;;;;;1.80;1.70;;;9.40;99.90;;;;;;5014231;28;20279;-67
2022/03/24 07:54:49;;;;;;;1.98;1.88;;;9.60;99.90;;;;;;5014458;28;20300;-65
2022/03/24 07:57:17;;;;;;;1.98;1.88;;;9.70;99.90;;;;;;5015196;28;20212;-67
2022/03/24 07:59:44;;;;;;;2.35;2.00;;;9.90;99.90;;;;;;5009447;28;20221;-67
2022/03/24 08:02:11;;;;;;;2.00;1.90;;;10.00;99.90;;;;;;5014667;28;20289;-68
2022/03/24 08:04:38;;;;;;;1.92;1.73;;;10.20;99.90;;;;;;5013175;28;20198;-68
2022/03/24 08:07:07;;;;;;;2.10;2.00;;;10.40;99.90;;;;;;5012934;28;20676;-66
2022/03/24 08:09:34;;;;;;;2.50;2.40;;;10.50;99.90;;;;;;5013572;28;20291;-67
2022/03/24 08:12:01;;;;;;;2.60;2.50;;;10.60;99.90;;;;;;5012537;28;20301;-66
2022/03/24 08:14:28;;;;;;;2.83;2.67;;;10.60;99.90;;;;;;5012695;28;20233;-67
2022/03/24 08:16:55;;;;;;;2.72;2.60;;;10.80;99.90;;;;;;5012991;28;20248;-67
2022/03/24 08:19:22;;;;;;;3.43;3.13;;;11.00;99.90;;;;;;5013016;28;20269;-66
2022/03/24 08:21:49;;;;;;;3.40;3.20;;;11.20;99.90;;;;;;5012268;28;20239;-68
2022/03/24 08:24:17;;;;;;;3.65;3.45;;;11.30;99.90;;;;;;5011404;28;20209;-67
2022/03/24 08:26:44;;;;;;;3.67;3.38;;;11.30;99.90;;;;;;5012291;28;20288;-66
2022/03/24 08:29:12;;;;;;;4.10;3.90;;;11.50;99.90;;;;;;5012151;28;20296;-65
2022/03/24 08:31:39;;;;;;;4.00;3.80;;;11.70;99.90;;;;;;5012237;28;20232;-66
2022/03/24 08:34:06;;;;;;;3.90;3.70;;;11.80;99.90;;;;;;5011126;28;20271;-67
2022/03/24 08:36:32;;;;;;;3.42;3.22;;;11.90;99.90;;;;;;5010946;28;20562;-66
2022/03/24 08:39:00;;;;;;;3.88;3.40;;;12.10;99.90;;;;;;5010877;28;20205;-68
2022/03/24 08:41:28;;;;;;;3.67;3.47;;;12.20;99.90;;;;;;5012980;28;20293;-68
2022/03/24 08:43:55;;;;;;;3.83;3.63;;;12.40;99.90;;;;;;5026800;28;20221;-67
2022/03/24 08:46:25;;;;;;;3.92;3.72;;;12.50;99.90;;;;;;5032951;28;20274;-67
2022/03/24 08:48:52;;;;;;;4.15;3.85;;;12.60;99.90;;;;;;5033897;28;20292;-67
2022/03/24 08:51:20;;;;;;;3.63;3.42;;;12.70;99.90;;;;;;5033091;28;20205;-68
2022/03/24 08:53:47;;;;;;;3.65;3.45;;;12.80;99.90;;;;;;5016168;28;20660;-68
2022/03/24 08:56:14;;;;;;;4.20;3.90;;;12.90;99.90;;;;;;5013588;28;20296;-67
2022/03/24 08:58:43;;;;;;;4.28;3.97;;;13.10;99.90;;;;;;5016617;28;20292;-67
2022/03/24 09:01:10;;;;;;;3.92;3.63;;;13.20;99.90;;;;;;5015549;28;20302;-67
2022/03/24 09:03:38;;;;;;;4.10;3.80;;;13.30;99.90;;;;;;5013926;28;20308;-66
2022/03/24 09:06:05;;;;;;;3.60;3.40;;;13.40;99.90;;;;;;5016931;28;20209;-67
2022/03/24 09:08:32;;;;;;;4.07;3.88;;;13.50;99.90;;;;;;5021451;28;20213;-67
2022/03/24 09:10:59;;;;;;;3.83;3.55;;;13.50;99.90;;;;;;5016869;28;20253;-67
2022/03/24 09:13:26;;;;;;;3.97;3.78;;;13.50;99.90;;;;;;5014916;28;20225;-68
2022/03/24 09:15:55;;;;;;;3.43;3.13;;;13.50;99.90;;;;;;5017114;28;20703;-67
2022/03/24 09:18:21;;;;;;;3.97;3.67;;;13.70;99.90;;;;;;5017749;28;20240;-66
2022/03/24 09:20:48;;;;;;;3.38;3.17;;;13.80;99.90;;;;;;5020850;28;20201;-68
2022/03/24 09:23:15;;;;;;;3.35;3.15;;;13.90;99.90;;;;;;5017832;28;20239;-68
2022/03/24 09:25:42;;;;;;;3.63;3.40;;;14.00;99.90;;;;;;5019723;28;20209;-67
2022/03/24 09:28:10;;;;;;;3.47;3.17;;;14.20;99.90;;;;;;5017470;28;20580;-67
2022/03/24 09:30:37;;;;;;;3.83;3.63;;;14.20;99.90;;;;;;5017924;28;20209;-66
2022/03/24 09:33:05;;;;;;;3.85;3.65;;;14.30;99.90;;;;;;5015191;28;20235;-66
2022/03/24 09:35:33;;;;;;;3.78;3.55;;;14.30;99.90;;;;;;5017208;28;20213;-66
2022/03/24 09:37:59;;;;;;;3.78;3.40;;;14.30;99.90;;;;;;5017788;28;20659;-67
2022/03/24 09:40:27;;;;;;;3.87;3.67;;;14.40;99.90;;;;;;5015397;28;20292;-67
2022/03/24 09:42:53;;;;;;;3.80;3.60;;;14.50;99.90;;;;;;5013502;28;20235;-66
2022/03/24 09:45:20;;;;;;;4.00;3.80;;;14.50;99.90;;;;;;5014495;28;20256;-66
2022/03/24 09:47:47;;;;;;;3.70;3.50;;;14.50;99.90;;;;;;5014255;28;20237;-66
2022/03/24 09:50:17;;;;;;;3.30;3.10;;;14.60;99.90;;;;;;5012467;28;20248;-66
2022/03/24 09:52:45;;;;;;;3.70;3.40;;;14.80;99.90;;;;;;5015718;28;20256;-66
2022/03/24 09:55:13;;;;;;;4.10;3.70;;;15.00;99.90;;;;;;5024375;28;20679;-67
2022/03/24 09:57:43;;;;;;;3.75;3.45;;;15.00;99.90;;;;;;5020176;28;20785;-66
2022/03/24 10:00:11;;;;;;;3.55;3.25;;;15.00;99.90;;;;;;5002074;28;20440;-66
2022/03/24 10:02:38;;;;;;;3.75;3.55;;;15.20;99.90;;;;;;5003232;28;20262;-66
2022/03/24 10:05:08;;;;;;;3.95;3.65;;;15.30;99.90;;;;;;5000774;28;20265;-66
2022/03/24 10:07:46;;;;;;;3.63;3.42;;;15.40;99.90;;;;;;5008173;28;20225;-66
2022/03/24 10:10:25;;;;;;;3.70;3.50;;;15.40;99.90;;;;;;5000462;28;20213;-66
2022/03/24 10:12:52;;;;;;;3.90;3.60;;;15.50;99.90;;;;;;4994754;28;20738;-66
2022/03/24 10:15:19;;;;;;;3.80;3.60;;;15.50;99.90;;;;;;4994620;28;20564;-67
2022/03/24 10:17:52;;;;;;;4.20;3.78;;;15.60;99.90;;;;;;5001820;28;20233;-65
2022/03/24 10:20:19;;;;;;;3.72;3.53;;;15.60;99.90;;;;;;5005730;28;20229;-66
2022/03/24 10:22:55;;;;;;;3.63;3.42;;;15.70;99.90;;;;;;4995497;28;20321;-67
2022/03/24 10:25:25;;;;;;;3.90;3.60;;;15.80;99.90;;;;;;4995060;28;20244;-66
2022/03/24 10:28:02;;;;;;;3.40;3.20;;;15.80;99.90;;;;;;4995104;28;20198;-66
2022/03/24 10:30:29;;;;;;;3.80;3.50;;;15.80;99.90;;;;;;5003684;28;20204;-66
2022/03/24 10:32:57;;;;;;;4.13;3.83;;;15.90;99.90;;;;;;5014421;28;20229;-65
2022/03/24 10:35:24;;;;;;;3.85;3.65;;;16.00;99.90;;;;;;5020168;28;20212;-66
2022/03/24 10:37:53;;;;;;;3.60;3.40;;;16.00;99.90;;;;;;5016031;28;20197;-66
2022/03/24 10:40:22;;;;;;;3.92;3.63;;;16.00;99.90;;;;;;5008740;28;20212;-67
2022/03/24 10:42:49;;;;;;;4.30;3.83;;;16.10;99.90;;;;;;5006473;28;20221;-67
2022/03/24 10:45:18;;;;;;;3.83;3.63;;;16.20;99.90;;;;;;5014140;28;20205;-66
2022/03/24 10:47:48;;;;;;;3.80;3.60;;;16.30;99.90;;;;;;5010344;28;20576;-66
2022/03/24 10:50:39;;;;;;;3.63;3.42;;;16.30;99.90;;;;;;5010247;28;20209;-66
2022/03/24 10:53:08;;;;;;;3.50;3.30;;;16.40;99.90;;;;;;5006000;28;20233;-67
2022/03/24 10:55:52;;;;;;;4.18;3.97;;;16.50;99.90;;;;;;5004780;28;20205;-66
2022/03/24 10:58:23;;;;;;;4.15;3.85;;;16.60;99.90;;;;;;5007758;28;20603;-66
2022/03/24 11:00:55;;;;;;;3.53;3.33;;;16.80;99.90;;;;;;5011313;28;20212;-66
2022/03/24 11:03:23;;;;;;;4.05;3.80;;;16.90;99.90;;;;;;4993306;28;20230;-66
2022/03/24 11:05:50;;;;;;;3.92;3.63;;;17.00;99.90;;;;;;5007447;28;20202;-67
2022/03/24 11:08:20;;;;;;;4.00;3.70;;;17.10;99.90;;;;;;4997731;28;20328;-65
2022/03/24 11:10:51;;;;;;;4.30;4.00;;;17.10;99.90;;;;;;4998093;28;20201;-66
2022/03/24 11:13:28;;;;;;;3.70;3.50;;;17.30;99.90;;;;;;5015318;28;20236;-66
2022/03/24 11:15:56;;;;;;;3.80;3.60;;;17.40;99.90;;;;;;5008782;28;20209;-66
2022/03/24 11:18:26;;;;;;;4.47;4.17;;;17.30;99.90;;;;;;5008824;28;20198;-65
2022/03/24 11:21:01;;;;;;;3.67;3.47;;;17.40;99.90;;;;;;5004880;28;20202;-65
2022/03/24 11:23:39;;;;;;;3.80;3.60;;;17.40;99.90;;;;;;5009093;28;20622;-65
2022/03/24 11:26:09;;;;;;;3.80;3.53;;;17.50;99.90;;;;;;5008335;28;20219;-66
2022/03/24 11:28:39;;;;;;;3.93;3.70;;;17.70;99.90;;;;;;5018685;28;20213;-65
2022/03/24 11:31:09;;;;;;;3.55;3.38;;;17.80;99.90;;;;;;5021129;28;20215;-65
2022/03/24 11:33:43;;;;;;;4.38;4.07;;;17.80;99.90;;;;;;5008595;28;20225;-65
2022/03/24 11:36:11;;;;;;;3.97;3.78;;;17.70;99.90;;;;;;5004392;28;20202;-66
2022/03/24 11:38:40;;;;;;;4.30;4.00;;;17.80;99.90;;;;;;5001287;28;20197;-66
2022/03/24 11:41:18;;;;;;;4.77;4.47;;;17.80;99.90;;;;;;5000342;28;20237;-66
2022/03/24 11:43:50;;;;;;;3.90;3.70;;;17.70;99.90;;;;;;5000268;28;20217;-66
2022/03/24 11:46:30;;;;;;;4.38;4.07;;;17.90;99.90;;;;;;5005635;28;20206;-66
2022/03/24 11:49:16;;;;;;;4.30;4.00;;;18.00;99.90;;;;;;5019933;28;20231;-66
2022/03/24 11:51:44;;;;;;;4.27;3.97;;;18.00;99.90;;;;;;5019758;28;20248;-64
2022/03/24 11:54:12;;;;;;;4.30;4.10;;;18.10;99.90;;;;;;5013135;28;20315;-65
2022/03/24 11:56:40;;;;;;;4.80;4.50;;;18.20;99.90;;;;;;5013879;28;20201;-66
2022/03/24 11:59:23;;;;;;;4.07;3.87;;;18.30;99.90;;;;;;5013662;28;20229;-66
2022/03/24 12:02:16;;;;;;;4.13;3.83;;;18.30;99.90;;;;;;5014295;28;20200;-67
2022/03/24 12:04:48;;;;;;;4.20;4.00;;;18.50;99.90;;;;;;5013392;28;20205;-64
2022/03/24 12:07:17;;;;;;;4.50;4.30;;;18.50;99.90;;;;;;5014078;28;20208;-66
2022/03/24 12:10:00;;;;;;;4.80;4.40;;;18.60;99.90;;;;;;5013495;28;20247;-65
2022/03/24 12:12:30;;;;;;;4.40;4.20;;;18.60;99.90;;;;;;5012377;28;20765;-66
2022/03/24 12:14:58;;;;;;;4.32;4.13;;;18.60;99.90;;;;;;5013623;28;20233;-66
2022/03/24 12:17:30;;;;;;;4.57;4.28;;;18.70;99.90;;;;;;5015405;28;20201;-66
2022/03/24 12:19:58;;;;;;;4.18;3.97;;;18.80;99.90;;;;;;5018128;28;20212;-66
2022/03/24 12:22:45;;;;;;;4.07;3.88;;;18.80;99.90;;;;;;5018349;28;20235;-64
2022/03/24 12:25:27;;;;;;;4.35;4.15;;;18.90;99.90;;;;;;5005420;28;20198;-64
2022/03/24 12:28:16;;;;;;;4.25;3.95;;;18.80;99.90;;;;;;5034108;28;20201;-66
2022/03/24 12:31:00;;;;;;;4.15;3.90;;;19.10;99.90;;;;;;5021275;28;20193;-66
2022/03/24 12:33:43;;;;;;;4.63;4.32;;;19.10;99.90;;;;;;5017052;28;20315;-64
2022/03/24 12:36:13;;;;;;;4.38;4.07;;;18.90;99.90;;;;;;5017104;28;20255;-64
2022/03/24 12:38:45;;;;;;;4.30;4.00;;;18.90;99.90;;;;;;5017521;28;20288;-64
2022/03/24 12:41:28;;;;;;;4.13;3.83;;;19.00;99.90;;;;;;5016983;28;20201;-64
2022/03/24 12:44:05;;;;;;;4.85;4.55;;;19.10;99.90;;;;;;5016815;28;20777;-66
2022/03/24 12:46:39;;;;;;;4.35;4.05;;;19.10;99.90;;;;;;5017613;28;20209;-66
2022/03/24 12:49:25;;;;;;;4.30;4.10;;;19.20;99.90;;;;;;5018692;28;20252;-64
2022/03/24 12:51:57;;;;;;;4.65;4.35;;;19.20;99.90;;;;;;5021490;28;20377;-65
2022/03/24 12:54:24;;;;;;;4.13;3.90;;;19.20;99.10;;;;;;5016873;28;20205;-66
2022/03/24 12:56:51;;;;;;;4.20;4.00;;;19.20;98.90;;;;;;5019040;28;20225;-66
2022/03/24 12:59:20;;;;;;;4.28;4.00;;;19.40;99.00;;;;;;5019116;28;20248;-66
2022/03/24 13:01:50;;;;;;;4.20;4.00;;;19.30;98.60;;;;;;5018186;28;20608;-66
2022/03/24 13:04:18;;;;;;;4.00;3.80;;;19.50;99.10;;;;;;5031070;28;20209;-65